Bowling Green, KY

3:30 AM CDT on July 05, 2015 (GMT -0500)
Bowling Green-Warren County Regional | | Change Station
CLOSE
Current Station
Airport
Location: Bowling Green,
Elevation: 548 ft
Nearby Weather Stations

Elev 548 ft 36.96 °N, 86.42 °W | Updated 37 minutes ago

Mostly Cloudy
Mostly Cloudy
72 °F
Feels Like 72 °F
N
4
Wind Variable Wind from SSE

Today
High -- | Low -- °F
--% Chance of Precip.
Yesterday
High -- | Low -- °F
Precip. -- in
5:31 AM 8:08 PM
Waning Gibbous, 86% visible
Pressure 29.99 in
Visibility 10.0 miles
Clouds Few 4500 ft
Overcast 8500 ft
Dew Point 68 °F
Humidity 87%
Rainfall 0.00 in
Snow Depth Not available.
UV 0 out of 12
Pollen .50 out of 12
Air Quality Not available.
Flu Activity Not available.
METAR KBWG 050753Z AUTO 15003KT 10SM -RA FEW045 OVC085 22/20 A3001 RMK AO2 RAB53 SLP156 P0000 T02220200

More Conditions Fewer Conditions

Pressure 29.99 in
Visibility 10.0 miles
Clouds Few 4500 ft
Overcast 8500 ft
Dew Point 68 °F
Humidity 87%
Rainfall 0.00 in
Snow Depth Not available.
UV 0 out of 12
Pollen .50 out of 12
Air Quality Not available.
Flu Activity Not available.
METAR KBWG 050753Z AUTO 15003KT 10SM -RA FEW045 OVC085 22/20 A3001 RMK AO2 RAB53 SLP156 P0000 T02220200

More Conditions Fewer Conditions

10-Day Weather Forecast

×

Almanac

Astronomy

Jul. 05, 2015 Rise Set
Actual Time
Civil Twilight
Nautical Twilight
Astronomical Twilight
Moon
Length of Visible Light
Length of Day
Tomorrow will be .
, % of the Moon is Illuminated

Today's Extremes

State Highs State Lows

Community

WunderPhotos

Upload Photos

1,835,218 photos uploaded!

WunderBlogs® & News

Nearby

Air Quality

  Air Quality AQ Index Pollutant
Not available.

Snow Depth

Station Depth Elevation

Earthquake Activity

City Distance Mag. Time & Date
Minimum magnitude displayed is 2.5.

Coastal Water Temperatures

Place Temperature

Stations

Nearby Weather Stations

Station Location Temp. Windchill Dew Point Humidity Wind Precip. Elev Updated Type